Time;durP1;ratioP1;P1;durP2;ratioP2;P2;SDS_P1;SDS_P2;PMS_P1;PMS_P2;Temp;Humidity;BMP_temperature;BMP_pressure;BME280_temperature;BME280_humidity;BME280_pressure;Samples;Min_cycle;Max_cycle;Signal;HPM_P1;HPM_P2
2021/05/21 00:00:19;;;;;;;;;;;;;;;;;;5069943;28;19916;-68
2021/05/21 00:02:44;;;;;;;;;;;;;;;;;;5076073;28;19964;-69
2021/05/21 00:05:10;;;;;;;;;;;;;;;;;;5059984;28;19975;-68
2021/05/21 00:07:36;;;;;;;;;;;;;;;;;;5058934;28;20358;-68
2021/05/21 00:10:02;;;;;;;;;;;;;;;;;;5071134;28;20311;-66
2021/05/21 00:12:28;;;;;;;;;;;;;;;;;;5070208;28;19918;-68
2021/05/21 00:14:54;;;;;;;;;;;;;;;;;;5066465;28;20385;-68
2021/05/21 00:17:20;;;;;;;;;;;;;;;;;;5071876;28;19916;-68
2021/05/21 00:19:46;;;;;;;;;;;;;;;;;;5066407;28;20020;-67
2021/05/21 00:22:12;;;;;;;;;;;;;;;;;;5058085;28;20346;-68
2021/05/21 00:24:38;;;;;;;;;;;;;;;;;;5054832;28;19920;-68
2021/05/21 00:27:04;;;;;;;;;;;;;;;;;;5055922;28;19913;-68
2021/05/21 00:29:30;;;;;;;;;;;;;;;;;;5057901;28;19912;-66
2021/05/21 00:31:56;;;;;;;;;;;;;;;;;;5061854;28;19962;-68
2021/05/21 00:34:21;;;;;;;;;;;;;;;;;;5057824;28;20018;-66
2021/05/21 00:36:47;;;;;;;;;;;;;;;;;;5077337;28;19908;-68
2021/05/21 00:39:13;;;;;;;;;;;;;;;;;;5081664;28;20358;-68
2021/05/21 00:41:39;;;;;;;;;;;;;;;;;;5086042;28;19916;-69
2021/05/21 00:44:05;;;;;;;;;;;;;;;;;;5080519;28;19916;-68
2021/05/21 00:46:31;;;;;;;;;;;;;;;;;;5061637;28;19917;-65
2021/05/21 00:48:57;;;;;;;;;;;;;;;;;;5074865;28;20271;-68
2021/05/21 00:51:23;;;;;;;;;;;;;;;;;;5054954;28;19913;-67
2021/05/21 00:53:49;;;;;;;;;;;;;;;;;;5068354;28;20338;-68
2021/05/21 00:56:15;;;;;;;;;;;;;;;;;;5057535;28;19997;-67
2021/05/21 00:58:41;;;;;;;;;;;;;;;;;;5054649;28;20008;-68
2021/05/21 01:01:06;;;;;;;;;;;;;;;;;;5076487;28;19912;-69
2021/05/21 01:03:32;;;;;;;;;;;;;;;;;;5080891;28;20362;-69
2021/05/21 01:05:58;;;;;;;;;;;;;;;;;;5062204;28;20007;-68
2021/05/21 01:08:24;;;;;;;;;;;;;;;;;;5073811;28;19913;-68
2021/05/21 01:10:50;;;;;;;;;;;;;;;;;;5072118;28;19924;-68
2021/05/21 01:13:16;;;;;;;;;;;;;;;;;;5057176;28;19966;-68
2021/05/21 01:15:42;;;;;;;;;;;;;;;;;;5064394;28;20003;-68
2021/05/21 01:18:08;;;;;;;;;;;;;;;;;;5061518;28;20374;-65
2021/05/21 01:20:34;;;;;;;;;;;;;;;;;;5066914;28;19908;-68
2021/05/21 01:23:00;;;;;;;;;;;;;;;;;;5065986;28;19920;-69
2021/05/21 01:25:26;;;;;;;;;;;;;;;;;;5079043;28;19920;-65
2021/05/21 01:27:52;;;;;;;;;;;;;;;;;;5054056;28;19912;-64
2021/05/21 01:30:18;;;;;;;;;;;;;;;;;;5061801;28;19985;-67
2021/05/21 01:32:44;;;;;;;;;;;;;;;;;;5072690;28;19912;-67
2021/05/21 01:35:10;;;;;;;;;;;;;;;;;;5073770;28;20267;-68
2021/05/21 01:37:35;;;;;;;;;;;;;;;;;;5068059;28;19916;-67
2021/05/21 01:40:01;;;;;;;;;;;;;;;;;;5088651;28;19908;-67
2021/05/21 01:42:27;;;;;;;;;;;;;;;;;;5069241;28;19912;-65
2021/05/21 01:44:54;;;;;;;;;;;;;;;;;;5054344;28;19951;-68
2021/05/21 01:47:20;;;;;;;;;;;;;;;;;;5074007;28;19908;-69
2021/05/21 01:49:46;;;;;;;;;;;;;;;;;;5061460;28;19917;-69
2021/05/21 01:52:12;;;;;;;;;;;;;;;;;;5077539;28;19943;-68
2021/05/21 01:54:38;;;;;;;;;;;;;;;;;;5057361;28;19968;-67
2021/05/21 01:57:04;;;;;;;;;;;;;;;;;;5075808;28;20370;-66
2021/05/21 01:59:30;;;;;;;;;;;;;;;;;;5063361;28;19957;-68
2021/05/21 02:01:56;;;;;;;;;;;;;;;;;;5069566;28;20399;-67
2021/05/21 02:04:22;;;;;;;;;;;;;;;;;;5054032;28;19913;-68
2021/05/21 02:06:48;;;;;;;;;;;;;;;;;;5082638;28;19909;-69
2021/05/21 02:09:14;;;;;;;;;;;;;;;;;;5066438;28;19924;-69
2021/05/21 02:11:40;;;;;;;;;;;;;;;;;;5059634;28;20291;-69
2021/05/21 02:14:06;;;;;;;;;;;;;;;;;;5054316;28;20275;-69
2021/05/21 02:16:32;;;;;;;;;;;;;;;;;;5076815;28;20430;-68
2021/05/21 02:18:57;;;;;;;;;;;;;;;;;;5080763;28;20011;-67
2021/05/21 02:21:31;;;;;;;;;;;;;;;;;;5057049;28;19912;-69
2021/05/21 02:23:57;;;;;;;;;;;;;;;;;;5061140;28;19924;-68
2021/05/21 02:26:22;;;;;;;;;;;;;;;;;;5076123;28;19912;-68
2021/05/21 02:28:48;;;;;;;;;;;;;;;;;;5060715;28;19913;-69
2021/05/21 02:31:14;;;;;;;;;;;;;;;;;;5074792;28;19915;-64
2021/05/21 02:33:40;;;;;;;;;;;;;;;;;;5085309;28;19912;-69
2021/05/21 02:36:06;;;;;;;;;;;;;;;;;;5089271;28;20174;-69
2021/05/21 02:38:32;;;;;;;;;;;;;;;;;;5086269;28;20027;-67
2021/05/21 02:40:58;;;;;;;;;;;;;;;;;;5089049;28;20425;-69
2021/05/21 02:43:24;;;;;;;;;;;;;;;;;;5088185;28;19930;-69
2021/05/21 02:45:50;;;;;;;;;;;;;;;;;;5075867;28;19959;-67
2021/05/21 02:48:16;;;;;;;;;;;;;;;;;;5089293;28;19939;-69
2021/05/21 02:50:43;;;;;;;;;;;;;;;;;;5085520;28;20345;-69
2021/05/21 02:53:08;;;;;;;;;;;;;;;;;;5089120;28;19919;-69
2021/05/21 02:55:34;;;;;;;;;;;;;;;;;;5085954;28;20000;-66
2021/05/21 02:58:02;;;;;;;;;;;;;;;;;;5067335;28;20365;-69
2021/05/21 03:00:28;;;;;;;;;;;;;;;;;;5077280;28;20365;-68
2021/05/21 03:02:54;;;;;;;;;;;;;;;;;;5080366;28;19908;-67
2021/05/21 03:05:22;;;;;;;;;;;;;;;;;;5092256;28;19953;-67
2021/05/21 03:07:48;;;;;;;;;;;;;;;;;;5092292;28;19908;-64
2021/05/21 03:10:14;;;;;;;;;;;;;;;;;;5095161;28;19912;-70
2021/05/21 03:12:40;;;;;;;;;;;;;;;;;;5096043;28;20277;-69
2021/05/21 03:15:06;;;;;;;;;;;;;;;;;;5095748;28;20310;-69
2021/05/21 03:17:32;;;;;;;;;;;;;;;;;;5096116;28;19912;-69
2021/05/21 03:19:58;;;;;;;;;;;;;;;;;;5096136;28;19908;-69
2021/05/21 03:22:24;;;;;;;;;;;;;;;;;;5096081;28;19955;-67
2021/05/21 03:24:50;;;;;;;;;;;;;;;;;;5095602;28;19912;-68
2021/05/21 03:27:16;;;;;;;;;;;;;;;;;;5095824;28;19953;-69
2021/05/21 03:29:42;;;;;;;;;;;;;;;;;;5095702;28;20363;-67
2021/05/21 03:32:11;;;;;;;;;;;;;;;;;;5089192;28;20352;-65
2021/05/21 03:34:37;;;;;;;;;;;;;;;;;;5087971;28;19912;-70
2021/05/21 03:37:02;;;;;;;;;;;;;;;;;;5095264;28;19969;-68
2021/05/21 03:39:28;;;;;;;;;;;;;;;;;;5084865;28;20011;-68
2021/05/21 03:41:54;;;;;;;;;;;;;;;;;;5092218;28;20003;-65
2021/05/21 03:44:20;;;;;;;;;;;;;;;;;;5095344;28;20002;-70
2021/05/21 03:46:46;;;;;;;;;;;;;;;;;;5095213;28;20382;-69
2021/05/21 03:49:13;;;;;;;;;;;;;;;;;;5095015;28;19963;-68
2021/05/21 03:51:39;;;;;;;;;;;;;;;;;;5095197;28;19912;-68
2021/05/21 03:54:05;;;;;;;;;;;;;;;;;;5094513;28;19973;-69
2021/05/21 03:56:31;;;;;;;;;;;;;;;;;;5095048;28;19912;-68
2021/05/21 03:58:57;;;;;;;;;;;;;;;;;;5094903;28;20061;-67
2021/05/21 04:01:23;;;;;;;;;;;;;;;;;;5094768;28;19912;-69
2021/05/21 04:03:49;;;;;;;;;;;;;;;;;;5077748;28;19935;-68
2021/05/21 04:06:15;;;;;;;;;;;;;;;;;;5094589;28;19915;-68
2021/05/21 04:08:42;;;;;;;;;;;;;;;;;;5095132;28;19908;-69
2021/05/21 04:11:08;;;;;;;;;;;;;;;;;;5095084;28;19908;-69
2021/05/21 04:13:34;;;;;;;;;;;;;;;;;;5094750;28;19912;-66
2021/05/21 04:15:59;;;;;;;;;;;;;;;;;;5094631;28;20447;-66
2021/05/21 04:18:26;;;;;;;;;;;;;;;;;;5094329;28;19970;-69
2021/05/21 04:20:52;;;;;;;;;;;;;;;;;;5094162;28;20336;-68
2021/05/21 04:23:17;;;;;;;;;;;;;;;;;;5094367;28;19912;-69
2021/05/21 04:25:43;;;;;;;;;;;;;;;;;;5094540;28;20448;-67
2021/05/21 04:28:10;;;;;;;;;;;;;;;;;;5094283;28;20362;-68
2021/05/21 04:30:36;;;;;;;;;;;;;;;;;;5094399;28;19908;-68
2021/05/21 04:33:02;;;;;;;;;;;;;;;;;;5081088;28;19915;-66
2021/05/21 04:35:28;;;;;;;;;;;;;;;;;;5061257;28;19908;-67
2021/05/21 04:37:54;;;;;;;;;;;;;;;;;;5094383;28;19918;-68
2021/05/21 04:40:20;;;;;;;;;;;;;;;;;;5079682;28;19919;-69
2021/05/21 04:42:46;;;;;;;;;;;;;;;;;;5094000;28;19908;-67
2021/05/21 04:45:12;;;;;;;;;;;;;;;;;;5093849;28;19914;-68
2021/05/21 04:47:38;;;;;;;;;;;;;;;;;;5094068;28;19908;-68
2021/05/21 04:50:04;;;;;;;;;;;;;;;;;;5093657;28;19915;-69
2021/05/21 04:52:29;;;;;;;;;;;409.60;1920.00;;;;;;5093723;28;19908;-69
2021/05/21 04:54:55;;;;;;;;;;;384.90;1945.60;;;;;;5093742;28;19974;-68
2021/05/21 04:57:21;;;;;;;;;;;409.70;1945.60;;;;;;5093752;28;19919;-68
2021/05/21 04:59:46;;;;;;;;;;;409.60;1945.60;;;;;;5093750;28;20384;-69
2021/05/21 05:02:12;;;;;;;;;;;409.80;1894.40;;;;;;5087525;28;19916;-70
2021/05/21 05:04:38;;;;;;;;;;;;;;;;;;5091353;28;19909;-68
2021/05/21 05:07:03;;;;;;;;;;;409.90;1894.40;;;;;;5093836;28;20324;-68
2021/05/21 05:09:29;;;;;;;;;;;409.80;1920.00;;;;;;5093452;28;19908;-70
2021/05/21 05:11:56;;;;;;;;;;;409.80;1920.00;;;;;;5093626;28;19916;-69
2021/05/21 05:14:22;;;;;;;;;;;;;;;;;;5093393;28;19912;-69
2021/05/21 05:16:48;;;;;;;;;;;;;;;;;;5093159;28;20428;-69
2021/05/21 05:19:14;;;;;;;;;;;;;;;;;;5093259;28;19912;-68
2021/05/21 05:21:40;;;;;;;;;;;;;;;;;;5093082;28;20392;-70
2021/05/21 05:24:07;;;;;;;;;;;410.00;1843.20;;;;;;5093078;28;19912;-69
2021/05/21 05:26:33;;;;;;;;;;;409.70;1868.80;;;;;;5090903;28;19912;-70
2021/05/21 05:28:59;;;;;;;;;;;409.60;1843.20;;;;;;5081446;28;20268;-69
2021/05/21 05:31:24;;;;;;;;;;;409.70;1868.80;;;;;;5092614;28;19908;-68
2021/05/21 05:33:50;;;;;;;;;;;409.60;1843.20;;;;;;5061996;28;20312;-70
2021/05/21 05:36:16;;;;;;;;;;;409.70;1843.20;;;;;;5092886;28;20642;-69
2021/05/21 05:38:41;;;;;;;;;;;409.80;1843.20;;;;;;5092979;28;20392;-69
2021/05/21 05:41:07;;;;;;;;;;;409.70;1843.20;;;;;;5093049;28;20021;-70
2021/05/21 05:43:33;;;;;;;;;;;409.70;1843.20;;;;;;5093396;28;19916;-69
2021/05/21 05:45:58;;;;;;;;;;;409.80;1843.20;;;;;;5093295;28;19908;-68
2021/05/21 05:48:24;;;;;;;;;;;410.00;1792.00;;;;;;5092977;28;19969;-68
2021/05/21 05:50:50;;;;;;;;;;;410.00;1817.60;;;;;;5092798;28;20373;-69
2021/05/21 05:53:19;;;;;;;;;;;409.90;1817.60;;;;;;5092489;28;19931;-70
2021/05/21 05:55:45;;;;;;;;;;;410.00;2073.60;;;;;;5092686;28;19912;-69
2021/05/21 05:58:11;;;;;;;;;;;410.20;1817.60;;;;;;5093093;28;19969;-68
2021/05/21 06:00:36;;;;;;;;;;;410.20;1792.00;;;;;;5092769;28;19958;-68
2021/05/21 06:03:06;;;;;;;;;;;410.50;2048.00;;;;;;5084313;28;19912;-69
2021/05/21 06:05:32;;;;;;;;;;;410.50;2176.00;;;;;;5092466;28;19915;-69
2021/05/21 06:07:57;;;;;;;;;;;410.50;1792.00;;;;;;5092445;28;20350;-66
2021/05/21 06:10:23;;;;;;;;;;;410.50;1766.40;;;;;;5092592;28;19908;-70
2021/05/21 06:12:48;;;;;;;;;;;410.50;1792.00;;;;;;5092405;28;19915;-69
2021/05/21 06:15:14;;;;;;;;;;;410.50;1792.00;;;;;;5092760;28;20001;-68
2021/05/21 06:17:39;;;;;;;;;;;435.20;1817.60;;;;;;5092613;28;19921;-69
2021/05/21 06:20:05;;;;;;;;;;;435.30;1766.40;;;;;;5092293;28;19973;-69
2021/05/21 06:22:31;;;;;;;;;;;435.40;1945.60;;;;;;5092407;28;20345;-68
2021/05/21 06:25:05;;;;;;;;;;;;;;;;;;5092443;28;20435;-65
2021/05/21 06:27:31;;;;;;;;;;;;;;;;;;5092452;28;19927;-70
2021/05/21 06:29:58;;;;;;;;;;;;;;;;;;5092341;28;19919;-69
2021/05/21 06:32:24;;;;;;;;;;;;;;;;;;5085059;28;19908;-69
2021/05/21 06:34:50;;;;;;;;;;;;;;;;;;5068796;28;19908;-69
2021/05/21 06:37:16;;;;;;;;;;;;;;;;;;5092262;28;19920;-68
2021/05/21 06:39:42;;;;;;;;;;;;;;;;;;5092569;28;19908;-67
2021/05/21 06:42:08;;;;;;;;;;;;;;;;;;5092324;28;19909;-69
2021/05/21 06:44:33;;;;;;;;;;;;;;;;;;5096021;28;19915;-69
2021/05/21 06:46:59;;;;;;;;;;;;;;;;;;5096187;28;19908;-69
2021/05/21 06:49:25;;;;;;;;;;;;;;;;;;5096190;28;19915;-67
2021/05/21 06:51:51;;;;;;;;;;;;;;;;;;5095933;28;19915;-69
2021/05/21 06:54:18;;;;;;;;;;;;;;;;;;5095773;28;20016;-67
2021/05/21 06:56:44;;;;;;;;;;;;;;;;;;5095951;28;20425;-68
2021/05/21 06:59:10;;;;;;;;;;;;;;;;;;5095966;28;20015;-69
2021/05/21 07:01:36;;;;;;;;;;;;;;;;;;5095121;28;19908;-65
2021/05/21 07:04:02;;;;;;;;;;;;;;;;;;5088588;28;19912;-68
2021/05/21 07:06:27;;;;;;;;;;;;;;;;;;5095761;28;19912;-69
2021/05/21 07:08:53;;;;;;;;;;;;;;;;;;5095850;28;19908;-69
2021/05/21 07:11:19;;;;;;;;;;;;;;;;;;5095746;28;20448;-69
2021/05/21 07:13:45;;;;;;;;;;;;;;;;;;5095872;28;19962;-70
2021/05/21 07:16:11;;;;;;;;;;;;;;;;;;5095524;28;19908;-69
2021/05/21 07:18:37;;;;;;;;;;;;;;;;;;5095664;28;20301;-66
2021/05/21 07:21:03;;;;;;;;;;;;;;;;;;5095857;28;19915;-68
2021/05/21 07:23:29;;;;;;;;;;;;;;;;;;5095362;28;20430;-69
2021/05/21 07:25:55;;;;;;;;;;;;;;;;;;5095498;28;20392;-69
2021/05/21 07:28:21;;;;;;;;;;;;;;;;;;5095305;28;19908;-69
2021/05/21 07:30:47;;;;;;;;;;;;;;;;;;5095371;28;19916;-69
2021/05/21 07:33:13;;;;;;;;;;;;;;;;;;5063642;28;19936;-69
2021/05/21 07:35:39;;;;;;;;;;;;;;;;;;5095099;28;19919;-68
2021/05/21 07:38:05;;;;;;;;;;;;;;;;;;5095162;28;19916;-69
2021/05/21 07:40:30;;;;;;;;;;;;;;;;;;5081054;28;20294;-70
2021/05/21 07:42:56;;;;;;;;;;;;;;;;;;5095212;28;20049;-69
2021/05/21 07:45:22;;;;;;;;;;;;;;;;;;5094958;28;19915;-69
2021/05/21 07:47:48;;;;;;;;;;;;;;;;;;5094909;28;19908;-69
2021/05/21 07:50:14;;;;;;;;;;;;;;;;;;5094813;28;19953;-69
2021/05/21 07:52:40;;;;;;;;;;;;;;;;;;5094654;28;20263;-69
2021/05/21 07:55:06;;;;;;;;;;;;;;;;;;5093926;28;20086;-68
2021/05/21 07:57:32;;;;;;;;;;;;;;;;;;5094642;28;19917;-70
2021/05/21 07:59:58;;;;;;;;;;;;;;;;;;5094685;28;20357;-68
2021/05/21 08:02:24;;;;;;;;;;;;;;;;;;5087576;28;19999;-68
2021/05/21 08:04:50;;;;;;;;;;;;;;;;;;5093983;28;20011;-68
2021/05/21 08:07:16;;;;;;;;;;;;;;;;;;5094507;28;19994;-69
2021/05/21 08:09:45;;;;;;;;;;;;;;;;;;5094474;28;20003;-69
2021/05/21 08:12:11;;;;;;;;;;;;;;;;;;5094477;28;19919;-68
2021/05/21 08:14:37;;;;;;;;;;;;;;;;;;5094438;28;19912;-67
2021/05/21 08:17:03;;;;;;;;;;;;;;;;;;5094846;28;19961;-70
2021/05/21 08:19:29;;;;;;;;;;;;;;;;;;5094511;28;19972;-68
2021/05/21 08:21:55;;;;;;;;;;;;;;;;;;5094251;28;19908;-68
2021/05/21 08:24:21;;;;;;;;;;;;;;;;;;5093917;28;20010;-68
2021/05/21 08:26:47;;;;;;;;;;;;;;;;;;5079628;28;19916;-68
2021/05/21 08:29:13;;;;;;;;;;;;;;;;;;5094128;28;19915;-67
2021/05/21 08:31:39;;;;;;;;;;;;;;;;;;5093631;28;19915;-67
2021/05/21 08:34:04;;;;;;;;;;;;;;;;;;5081833;28;19961;-68
2021/05/21 08:36:30;;;;;;;;;;;;;;;;;;5093757;28;19908;-68
2021/05/21 08:38:56;;;;;;;;;;;;;;;;;;5093868;28;20007;-66
2021/05/21 08:41:22;;;;;;;;;;;;;;;;;;5094202;28;19936;-68
2021/05/21 08:43:48;;;;;;;;;;;;;;;;;;5086797;28;19913;-68
2021/05/21 08:46:14;;;;;;;;;;;;;;;;;;5079084;28;19916;-69
2021/05/21 08:48:40;;;;;;;;;;;;;;;;;;5077031;28;19908;-68
2021/05/21 08:51:09;;;;;;;;;;;;;;;;;;5083343;28;19931;-70
2021/05/21 08:53:35;;;;;;;;;;;;;;;;;;5067438;28;19979;-66
2021/05/21 08:56:01;;;;;;;;;;;;;;;;;;5074983;28;19913;-68
2021/05/21 08:58:26;;;;;;;;;;;;;;;;;;5075236;28;19924;-70
2021/05/21 09:00:52;;;;;;;;;;;;;;;;;;5059830;28;19917;-69
2021/05/21 09:03:18;;;;;;;;;;;;;;;;;;5066341;28;19908;-68
2021/05/21 09:05:44;;;;;;;;;;;;;;;;;;5073040;28;20384;-68
2021/05/21 09:08:10;;;;;;;;;;;;;;;;;;5074837;28;19908;-68
2021/05/21 09:10:36;;;;;;;;;;;;;;;;;;5075506;28;19908;-67
2021/05/21 09:13:02;;;;;;;;;;;;;;;;;;5077908;28;19920;-68
2021/05/21 09:15:28;;;;;;;;;;;;;;;;;;5075459;28;19962;-68
2021/05/21 09:17:54;;;;;;;;;;;;;;;;;;5077513;28;19973;-68
2021/05/21 09:20:20;;;;;;;;;;;;;;;;;;5075410;28;19991;-69
2021/05/21 09:22:46;;;;;;;;;;;;;;;;;;5076578;28;20267;-69
2021/05/21 09:25:12;;;;;;;;;;;;;;;;;;5075918;28;19912;-68
2021/05/21 09:27:39;;;;;;;;;;;;;;;;;;5075237;28;19916;-67
2021/05/21 09:30:05;;;;;;;;;;;;;;;;;;5077316;28;20340;-69
2021/05/21 09:32:32;;;;;;;;;;;;;;;;;;5075030;28;19909;-70
2021/05/21 09:34:58;;;;;;;;;;;;;;;;;;5077735;28;19909;-69
2021/05/21 09:37:24;;;;;;;;;;;;;;;;;;5080479;28;19964;-69
2021/05/21 09:39:50;;;;;;;;;;;;;;;;;;5081007;28;20391;-70
2021/05/21 09:42:16;;;;;;;;;;;;;;;;;;5075602;28;19913;-69
2021/05/21 09:44:41;;;;;;;;;;;;;;;;;;5075012;28;19908;-68
2021/05/21 09:47:10;;;;;;;;;;;;;;;;;;5077631;28;19912;-68
2021/05/21 09:49:38;;;;;;;;;;;;;;;;;;5075386;28;19991;-69
2021/05/21 09:52:04;;;;;;;;;;;;;;;;;;5076887;28;19961;-68
2021/05/21 09:54:30;;;;;;;;;;;;;;;;;;5074592;28;19927;-67
2021/05/21 09:56:56;;;;;;;;;;;;;;;;;;5076847;28;19921;-68
2021/05/21 09:59:22;;;;;;;;;;;;;;;;;;5077077;28;19917;-69
2021/05/21 10:01:48;;;;;;;;;;;;;;;;;;5091055;28;20366;-68
2021/05/21 10:04:14;;;;;;;;;;;;;;;;;;5086888;28;19908;-70
2021/05/21 10:06:42;;;;;;;;;;;;;;;;;;5092700;28;19952;-65
2021/05/21 10:09:08;;;;;;;;;;;;;;;;;;5092701;28;19908;-69
2021/05/21 10:11:34;;;;;;;;;;;;;;;;;;5092432;28;20285;-69
2021/05/21 10:13:59;;;;;;;;;;;;;;;;;;5092883;28;19916;-70
2021/05/21 10:16:25;;;;;;;;;;;;;;;;;;5092562;28;19916;-69
2021/05/21 10:18:52;;;;;;;;;;;;;;;;;;5095010;28;19916;-69
2021/05/21 10:21:18;;;;;;;;;;;;;;;;;;5096800;28;19965;-70
2021/05/21 10:23:44;;;;;;;;;;;;;;;;;;5096524;28;19921;-69
2021/05/21 10:26:10;;;;;;;;;;;;;;;;;;5096700;28;19940;-65
2021/05/21 10:28:35;;;;;;;;;;;;;;;;;;5096844;28;19908;-69
2021/05/21 10:31:01;;;;;;;;;;;;;;;;;;5096257;28;19971;-65
2021/05/21 10:33:28;;;;;;;;;;;;;;;;;;5084154;28;19969;-68
2021/05/21 10:35:54;;;;;;;;;;;;;;;;;;5096529;28;19916;-65
2021/05/21 10:38:20;;;;;;;;;;;;;;;;;;5096205;28;19920;-65
2021/05/21 10:40:46;;;;;;;;;;;;;;;;;;5096467;28;20353;-68
2021/05/21 10:43:12;;;;;;;;;;;;;;;;;;5096567;28;19915;-68
2021/05/21 10:45:38;;;;;;;;;;;;;;;;;;5096385;28;19915;-67
2021/05/21 10:48:06;;;;;;;;;;;;;;;;;;5096324;28;19908;-67
2021/05/21 10:50:32;;;;;;;;;;;;;;;;;;5096135;28;19908;-65
2021/05/21 10:52:59;;;;;;;;;;;;;;;;;;5095843;28;19916;-68
2021/05/21 10:55:25;;;;;;;;;;;;;;;;;;5096043;28;19916;-65
2021/05/21 10:57:51;;;;;;;;;;;;;;;;;;5072198;28;19920;-68
2021/05/21 11:00:17;;;;;;;;;;;;;;;;;;5078819;28;19921;-66
2021/05/21 11:02:43;;;;;;;;;;;;;;;;;;5080584;28;19926;-65
2021/05/21 11:05:09;;;;;;;;;;;;;;;;;;5077834;28;19908;-66
2021/05/21 11:07:35;;;;;;;;;;;;;;;;;;5079778;28;19945;-65
2021/05/21 11:10:01;;;;;;;;;;;;;;;;;;5077574;28;19923;-65
2021/05/21 11:12:27;;;;;;;;;;;;;;;;;;5077693;28;20378;-65
2021/05/21 11:14:53;;;;;;;;;;;;;;;;;;5079293;28;19915;-71
2021/05/21 11:17:19;;;;;;;;;;;;;;;;;;5077258;28;19920;-69
2021/05/21 11:19:45;;;;;;;;;;;;;;;;;;5078965;28;19961;-69
2021/05/21 11:22:24;;;;;;;;;;;640.00;793.60;;;;;;5077069;28;19961;-66
2021/05/21 11:24:53;;;;;;;;;;;615.30;819.20;;;;;;5079292;28;20265;-71
2021/05/21 11:27:19;;;;;;;;;;;640.20;793.60;;;;;;5077168;28;20370;-65
2021/05/21 11:29:47;;;;;;;;;;;640.20;793.60;;;;;;5077845;28;19909;-71
2021/05/21 11:32:12;;;;;;;;;;;;;;;;;;5076751;28;19912;-68
2021/05/21 11:34:38;;;;;;;;;;;;;;;;;;5077820;28;19909;-71
2021/05/21 11:37:06;;;;;;;;;;;;;;;;;;5077948;28;19908;-65
2021/05/21 11:39:32;;;;;;;;;;;;;;;;;;5070271;28;20374;-70
2021/05/21 11:41:57;;;;;;;;;;;;;;;;;;5077678;28;19912;-64
2021/05/21 11:44:28;;;;;;;;;;;;;;;;;;5076628;28;19978;-65
2021/05/21 11:46:53;;;;;;;;;;;;;;;;;;5069944;28;19919;-66
2021/05/21 11:49:20;;;;;;;;;;;;;;;;;;5068412;28;19908;-70
2021/05/21 11:51:45;;;;;;;;;;;;;;;;;;5090826;28;20013;-66
2021/05/21 11:54:11;;;;;;;;;;;;;;;;;;5086007;28;19924;-66
2021/05/21 11:56:37;;;;;;;;;;;;;;;;;;5090982;28;19913;-65
2021/05/21 11:59:03;;;;;;;;;;;;;;;;;;5086945;28;19928;-65
2021/05/21 12:01:29;;;;;;;;;;;;;;;;;;5087279;28;19948;-69
2021/05/21 12:03:55;;;;;;;;;;;;;;;;;;5055922;28;20021;-65
2021/05/21 12:06:21;;;;;;;;;;;;;;;;;;5087675;28;20378;-65
2021/05/21 12:08:47;;;;;;;;;;;;;;;;;;5084109;28;19912;-68
2021/05/21 12:11:14;;;;;;;;;;;;;;;;;;5079663;28;19908;-65
2021/05/21 12:13:39;;;;;;;;;;;;;;;;;;5086604;28;19997;-70
2021/05/21 12:16:05;;;;;;;;;;;;;;;;;;5088154;28;19912;-65
2021/05/21 12:18:31;;;;;;;;;;;;;;;;;;5079877;28;19920;-70
2021/05/21 12:20:57;;;;;;;;;;;;;;;;;;5065069;28;19917;-67
2021/05/21 12:23:23;;;;;;;;;;;;;;;;;;5062001;28;20313;-70
2021/05/21 12:25:49;;;;;;;;;;;;;;;;;;5070823;28;19923;-71
2021/05/21 12:28:15;;;;;;;;;;;;;;;;;;5055714;28;19923;-71
2021/05/21 12:30:41;;;;;;;;;;;;;;;;;;5056414;28;19916;-70
2021/05/21 12:33:07;;;;;;;;;;;;;;;;;;5080258;28;20507;-70
2021/05/21 12:35:33;;;;;;;;;;;;;;;;;;5081429;28;20002;-66
2021/05/21 12:37:59;;;;;;;;;;;;;;;;;;5086832;28;20045;-67
2021/05/21 12:40:25;;;;;;;;;;;;;;;;;;5082370;28;19995;-70
2021/05/21 12:42:51;;;;;;;;;;;;;;;;;;5084968;28;20004;-69
2021/05/21 12:45:17;;;;;;;;;;;;;;;;;;5084609;28;19908;-69
2021/05/21 12:47:43;;;;;;;;;;;;;;;;;;5081768;28;19912;-67
2021/05/21 12:50:08;;;;;;;;;;;;;;;;;;5086628;28;19919;-68
2021/05/21 12:52:34;;;;;;;;;;;;;;;;;;5080194;28;19975;-69
2021/05/21 12:55:00;;;;;;;;;;;;;;;;;;5078910;28;19924;-67
2021/05/21 12:57:26;;;;;;;;;;;;;;;;;;5082194;28;20362;-67
2021/05/21 12:59:52;;;;;;;;;;;;;;;;;;5086643;28;19920;-71
2021/05/21 13:02:19;;;;;;;;;;;;;;;;;;5091622;28;20425;-67
2021/05/21 13:04:45;;;;;;;;;;;;;;;;;;5091304;28;19908;-67
2021/05/21 13:07:11;;;;;;;;;;;;;;;;;;5091741;28;20361;-67
2021/05/21 13:09:37;;;;;;;;;;;;;;;;;;5092416;28;19955;-67
2021/05/21 13:12:03;;;;;;;;;;;;;;;;;;5093499;28;19947;-70
2021/05/21 13:14:29;;;;;;;;;;;;;;;;;;5093192;28;19908;-70
2021/05/21 13:16:55;;;;;;;;;;;;;;;;;;5091977;28;20401;-67
2021/05/21 13:19:21;;;;;;;;;;;;;;;;;;5093503;28;20388;-67
2021/05/21 13:21:48;;;;;;;;;;;;;;;;;;5092236;28;19912;-70
2021/05/21 13:24:15;;;;;;;;;;;;;;;;;;5090885;28;19912;-70
2021/05/21 13:26:41;;;;;;;;;;;;;;;;;;5092378;28;19970;-67
2021/05/21 13:29:07;;;;;;;;;;;;;;;;;;5093302;28;19943;-67
2021/05/21 13:31:33;;;;;;;;;;;;;;;;;;5093312;28;20434;-69
2021/05/21 13:33:59;;;;;;;;;;;;;;;;;;5093140;28;19985;-70
2021/05/21 13:36:25;;;;;;;;;;;;;;;;;;5090637;28;19963;-69
2021/05/21 13:38:51;;;;;;;;;;;;;;;;;;5090246;28;19959;-70
2021/05/21 13:41:17;;;;;;;;;;;;;;;;;;5090752;28;20099;-70
2021/05/21 13:43:43;;;;;;;;;;;;;;;;;;5090546;28;19970;-70
2021/05/21 13:46:08;;;;;;;;;;;;;;;;;;5090818;28;19959;-68
2021/05/21 13:48:34;;;;;;;;;;;;;;;;;;5092816;28;19909;-70
2021/05/21 13:51:00;;;;;;;;;;;;;;;;;;5093553;28;20261;-70
2021/05/21 13:53:26;;;;;;;;;;;;;;;;;;5092136;28;19924;-71
2021/05/21 13:55:52;;;;;;;;;;;;;;;;;;5087174;28;19944;-70
2021/05/21 13:58:18;;;;;;;;;;;;;;;;;;5084385;28;19916;-70
2021/05/21 14:00:44;;;;;;;;;;;;;;;;;;5092897;28;20262;-70
2021/05/21 14:03:10;;;;;;;;;;;;;;;;;;5092544;28;19916;-70
2021/05/21 14:05:36;;;;;;;;;;;;;;;;;;5092809;28;19908;-70
2021/05/21 14:08:02;;;;;;;;;;;;;;;;;;5092825;28;19909;-70
2021/05/21 14:10:28;;;;;;;;;;;;;;;;;;5092673;28;20000;-70
2021/05/21 14:12:54;;;;;;;;;;;;;;;;;;5092424;28;20005;-71
2021/05/21 14:15:20;;;;;;;;;;;;;;;;;;5092851;28;19944;-70
2021/05/21 14:17:45;;;;;;;;;;;;;;;;;;5092781;28;19916;-70
2021/05/21 14:20:14;;;;;;;;;;;;;;;;;;5092796;28;19912;-71
2021/05/21 14:22:41;;;;;;;;;;;;;;;;;;5092583;28;20363;-71
2021/05/21 14:25:07;;;;;;;;;;;;;;;;;;5092454;28;19912;-71
2021/05/21 14:27:33;;;;;;;;;;;;;;;;;;5082122;28;19962;-70
2021/05/21 14:29:59;;;;;;;;;;;;;;;;;;5088946;28;19943;-70
2021/05/21 14:32:25;;;;;;;;;;;;;;;;;;5092744;28;19954;-71
2021/05/21 14:34:51;;;;;;;;;;;;;;;;;;5092507;28;19915;-70
2021/05/21 14:37:21;;;;;;;;;;;;;;;;;;5092650;28;19913;-70
2021/05/21 14:39:46;;;;;;;;;;;;;;;;;;5092534;28;19912;-71
2021/05/21 14:42:14;;;;;;;;;;;;;;;;;;5092365;28;19977;-70
2021/05/21 14:44:40;;;;;;;;;;;;;;;;;;5081095;28;19986;-70
2021/05/21 14:47:06;;;;;;;;;;;;;;;;;;5089782;28;19970;-70
2021/05/21 14:49:32;;;;;;;;;;;;;;;;;;5092708;28;20319;-71
2021/05/21 14:51:58;;;;;;;;;;;614.50;870.40;;;;;;5092238;28;19908;-71
2021/05/21 14:54:25;;;;;;;;;;;589.70;896.00;;;;;;5073154;28;20065;-71
2021/05/21 14:56:51;;;;;;;;;;;;;;;;;;5092322;28;19919;-71
2021/05/21 14:59:17;;;;;;;;;;;;;;;;;;5092076;28;19920;-71
2021/05/21 15:01:43;;;;;;;;;;;;;;;;;;5092446;28;19908;-71
2021/05/21 15:04:12;;;;;;;;;;;;;;;;;;5093667;28;20384;-71
2021/05/21 15:06:38;;;;;;;;;;;;;;;;;;5068447;28;19962;-71
2021/05/21 15:09:05;;;;;;;;;;;;;;;;;;5096014;28;19912;-71
2021/05/21 15:11:33;;;;;;;;;;;;;;;;;;5095880;28;19915;-70
2021/05/21 15:14:02;;;;;;;;;;;;;;;;;;5096335;28;19918;-71
2021/05/21 15:16:58;;;;;;;;;;;;;;;;;;5095772;28;19912;-71
2021/05/21 15:24:46;;;;;;;;;;;;;;;;;;5095465;28;19995;-70
2021/05/21 15:27:12;;;;;;;;;;;;;;;;;;5096004;28;19970;-70
2021/05/21 15:29:39;;;;;;;;;;;;;;;;;;5095786;28;19912;-70
2021/05/21 15:32:05;;;;;;;;;;;;;;;;;;5095549;28;19969;-71
2021/05/21 15:34:31;;;;;;;;;;;;;;;;;;5095459;28;19912;-72
2021/05/21 15:36:57;;;;;;;;;;;;;;;;;;5095162;28;19919;-70
2021/05/21 15:39:27;;;;;;;;;;;;;;;;;;5095597;28;19916;-71
2021/05/21 15:47:25;;;;;;;;;;;;;;;;;;5032869;28;19917;-70
2021/05/21 15:52:40;;;;;;;;;;;;;;;;;;5032736;28;19916;-70
2021/05/21 16:00:33;;;;;;;;;;;;;;;;;;5032768;28;20364;-71
2021/05/21 16:02:59;;;;;;;;;;;;;;;;;;5032619;28;20000;-71
2021/05/21 16:05:25;;;;;;;;;;;;;;;;;;5032699;28;19937;-71
2021/05/21 16:07:52;;;;;;;;;;;;;;;;;;5032405;28;19916;-71
2021/05/21 16:10:25;;;;;;;;;;;;;;;;;;5032770;28;20362;-71
2021/05/21 16:12:51;;;;;;;;;;;;;;;;;;5032595;28;19960;-71
2021/05/21 16:15:17;;;;;;;;;;;;;;;;;;5032029;28;20311;-71
2021/05/21 16:17:43;;;;;;;;;;;;;;;;;;5032343;28;19921;-71
2021/05/21 16:20:10;;;;;;;;;;;;;;;;;;5032211;28;19909;-71
2021/05/21 16:22:37;;;;;;;;;;;;;;;;;;5072827;28;19908;-71
2021/05/21 16:25:02;;;;;;;;;;;;;;;;;;5094468;28;20433;-70
2021/05/21 16:27:28;;;;;;;;;;;;;;;;;;5094587;28;20002;-70
2021/05/21 16:29:54;;;;;;;;;;;;;;;;;;5094430;28;19944;-70
2021/05/21 16:32:20;;;;;;;;;;;;;;;;;;5094456;28;19915;-71
2021/05/21 16:34:46;;;;;;;;;;;;;;;;;;5094432;28;19909;-71